createdAt,value
2022-12-23T00:00:26.779Z,34.47
2022-12-23T00:02:56.268Z,34.13
2022-12-23T00:05:23.698Z,34.05
2022-12-23T00:08:08.006Z,34.28
2022-12-23T00:10:49.648Z,32.55
2022-12-23T00:13:37.374Z,34.27
2022-12-23T00:16:22.328Z,35.28
2022-12-23T00:19:03.742Z,37.25
2022-12-23T00:21:41.954Z,34.15
2022-12-23T00:24:09.148Z,33.65
2022-12-23T00:26:43.238Z,33.40
2022-12-23T00:29:18.702Z,33.80
2022-12-23T00:32:07.958Z,34.88
2022-12-23T00:34:40.110Z,33.25
2022-12-23T00:37:18.793Z,32.90
2022-12-23T00:40:17.368Z,35.17
2022-12-23T00:43:07.776Z,34.78
2022-12-23T00:45:48.589Z,34.60
2022-12-23T00:48:35.980Z,35.35
2022-12-23T00:51:08.177Z,35.57
2022-12-23T00:53:37.462Z,36.17
2022-12-23T00:56:10.667Z,35.30
2022-12-23T00:58:40.092Z,34.08
2022-12-23T01:01:28.921Z,34.00
2022-12-23T01:04:17.821Z,35.33
2022-12-23T01:06:49.277Z,35.00
2022-12-23T01:09:20.230Z,34.67
2022-12-23T01:11:51.299Z,34.38
2022-12-23T01:20:07.213Z,31.48
2022-12-23T01:22:48.712Z,31.08
2022-12-23T01:25:44.199Z,30.40
2022-12-23T01:28:29.288Z,33.55
2022-12-23T01:31:06.547Z,32.20
2022-12-23T01:33:37.259Z,35.43
2022-12-23T01:36:15.218Z,33.67
2022-12-23T01:38:56.681Z,35.88
2022-12-23T01:41:57.987Z,34.50
2022-12-23T01:44:51.330Z,32.85
2022-12-23T01:47:50.983Z,34.47
2022-12-23T01:50:40.358Z,32.17
2022-12-23T01:53:20.902Z,32.10
2022-12-23T01:59:38.098Z,34.22
2022-12-23T02:02:26.213Z,34.37
2022-12-23T02:05:32.156Z,31.50
2022-12-23T02:08:46.250Z,31.95
2022-12-23T02:11:37.998Z,34.78
2022-12-23T02:14:52.139Z,33.13
2022-12-23T02:26:32.718Z,31.65
2022-12-23T02:32:50.024Z,32.80
2022-12-23T02:35:34.600Z,32.67
2022-12-23T02:38:21.487Z,34.17
2022-12-23T02:42:11.800Z,32.80
2022-12-23T02:44:45.966Z,33.83
2022-12-23T02:47:52.792Z,33.20
2022-12-23T02:50:36.737Z,32.80
2022-12-23T02:53:29.088Z,32.75
2022-12-23T02:56:01.664Z,32.20
2022-12-23T02:58:43.109Z,32.58
2022-12-23T03:01:25.584Z,32.22
2022-12-23T03:04:02.820Z,30.47
2022-12-23T03:06:40.077Z,31.23
2022-12-23T03:09:18.248Z,32.42
2022-12-23T03:11:52.396Z,32.58
2022-12-23T03:14:55.622Z,31.92
2022-12-23T03:17:30.379Z,33.47
2022-12-23T03:20:03.626Z,32.13
2022-12-23T03:23:10.121Z,30.60
2022-12-23T03:26:23.724Z,30.67
2022-12-23T03:29:18.465Z,30.35
2022-12-23T03:31:47.475Z,31.33
2022-12-23T03:34:33.664Z,29.98
2022-12-23T03:37:07.415Z,31.92
2022-12-23T03:39:54.892Z,31.13
2022-12-23T03:42:43.301Z,31.35
2022-12-23T03:45:40.781Z,31.10
2022-12-23T03:48:26.900Z,30.27
2022-12-23T03:51:00.053Z,31.30
2022-12-23T03:53:46.714Z,30.45
2022-12-23T03:56:26.623Z,30.52
2022-12-23T03:59:27.722Z,30.43
2022-12-23T04:02:20.541Z,30.35
2022-12-23T04:05:16.153Z,31.23
2022-12-23T04:08:08.219Z,30.83
2022-12-23T04:10:35.464Z,30.60
2022-12-23T04:13:08.793Z,31.57
2022-12-23T04:15:51.173Z,31.08
2022-12-23T04:18:25.534Z,31.08
2022-12-23T04:20:57.698Z,29.20
2022-12-23T04:23:29.389Z,29.70
2022-12-23T04:26:04.734Z,29.57
2022-12-23T04:28:34.366Z,27.02
2022-12-23T04:31:08.961Z,29.33
2022-12-23T04:33:40.944Z,29.85
2022-12-23T04:36:25.312Z,30.83
2022-12-23T04:38:58.255Z,30.70
2022-12-23T04:41:33.769Z,30.42
2022-12-23T04:44:03.593Z,31.70
2022-12-23T04:56:11.000Z,29.93
2022-12-23T04:58:38.777Z,30.60
2022-12-23T05:01:19.299Z,30.40
2022-12-23T05:03:53.273Z,31.67
2022-12-23T05:06:34.016Z,31.35
2022-12-23T05:09:09.002Z,29.43
2022-12-23T05:11:42.578Z,31.70
2022-12-23T05:14:13.874Z,30.77
2022-12-23T05:17:05.217Z,31.77
2022-12-23T05:19:48.108Z,30.55
2022-12-23T05:22:31.544Z,31.53
2022-12-23T05:25:01.611Z,30.77
2022-12-23T05:27:36.312Z,31.33
2022-12-23T05:30:14.272Z,31.98
2022-12-23T05:32:50.837Z,31.55
2022-12-23T05:35:28.214Z,29.53
2022-12-23T05:38:02.602Z,30.33
2022-12-23T05:40:35.204Z,31.05
2022-12-23T05:43:11.307Z,32.53
2022-12-23T05:45:46.938Z,30.73
2022-12-23T05:48:25.573Z,30.47
2022-12-23T05:50:57.388Z,31.25
2022-12-23T05:53:33.250Z,31.92
2022-12-23T05:56:13.857Z,30.83
2022-12-23T05:59:05.178Z,30.40
2022-12-23T06:01:50.335Z,30.50
2022-12-23T06:04:25.121Z,27.95
2022-12-23T06:07:02.843Z,30.45
2022-12-23T06:09:30.078Z,29.23
2022-12-23T06:12:04.804Z,29.83
2022-12-23T06:14:37.851Z,28.87
2022-12-23T06:17:07.285Z,29.45
2022-12-23T06:19:38.328Z,29.73
2022-12-23T06:22:13.892Z,30.65
2022-12-23T06:24:46.752Z,30.45
2022-12-23T06:27:23.691Z,29.50
2022-12-23T06:30:03.235Z,29.90
2022-12-23T06:32:38.865Z,30.52
2022-12-23T06:35:12.374Z,29.27
2022-12-23T06:37:42.945Z,30.98
2022-12-23T06:40:45.188Z,31.43
2022-12-23T06:43:22.312Z,30.63
2022-12-23T06:45:56.439Z,30.63
2022-12-23T06:48:27.816Z,29.83
2022-12-23T06:51:03.666Z,32.10
2022-12-23T06:53:37.481Z,31.43
2022-12-23T06:56:10.033Z,30.55
2022-12-23T06:58:45.429Z,30.90
2022-12-23T07:01:17.991Z,30.58
2022-12-23T07:03:53.942Z,31.55
2022-12-23T07:06:22.228Z,32.50
2022-12-23T07:08:52.101Z,31.50
2022-12-23T07:11:25.916Z,30.42
2022-12-23T07:14:30.409Z,31.33
2022-12-23T07:17:04.793Z,31.92
2022-12-23T07:19:47.425Z,30.17
2022-12-23T07:22:26.413Z,30.08
2022-12-23T07:24:59.572Z,31.33
2022-12-23T07:27:31.338Z,32.00
2022-12-23T07:30:16.120Z,31.13
2022-12-23T07:41:12.337Z,30.98
2022-12-23T07:43:46.169Z,30.88
2022-12-23T07:46:22.488Z,31.80
2022-12-23T07:48:59.936Z,32.83
2022-12-23T07:51:32.864Z,33.60
2022-12-23T07:54:10.046Z,33.47
2022-12-23T07:56:49.687Z,35.22
2022-12-23T07:59:21.393Z,35.08
2022-12-23T08:01:51.651Z,35.30
2022-12-23T08:04:31.976Z,32.65
2022-12-23T08:07:14.861Z,33.55
2022-12-23T08:09:48.513Z,32.67
2022-12-23T08:12:20.191Z,31.15
2022-12-23T08:37:24.863Z,29.17
2022-12-23T08:40:03.318Z,31.85
2022-12-23T08:42:33.818Z,30.40
2022-12-23T08:45:11.142Z,26.88
2022-12-23T08:47:41.550Z,26.65
2022-12-23T08:50:14.662Z,28.17
2022-12-23T08:52:51.152Z,28.97
2022-12-23T08:55:23.254Z,28.33
2022-12-23T08:57:55.625Z,29.30
2022-12-23T09:00:36.071Z,30.13
2022-12-23T09:03:06.157Z,28.97
2022-12-23T09:05:46.340Z,28.10
2022-12-23T09:08:19.357Z,29.23
2022-12-23T09:10:51.766Z,29.58
2022-12-23T09:13:30.753Z,27.75
2022-12-23T09:16:06.814Z,32.35
2022-12-23T09:18:37.920Z,30.30
2022-12-23T09:21:15.133Z,30.70
2022-12-23T09:23:44.623Z,30.17
2022-12-23T09:26:30.741Z,29.00
2022-12-23T09:29:00.542Z,30.52
2022-12-23T09:31:36.646Z,29.47
2022-12-23T09:34:09.785Z,29.45
2022-12-23T09:36:53.388Z,29.20
2022-12-23T09:39:35.563Z,28.33
2022-12-23T09:42:04.508Z,29.98
2022-12-23T09:44:56.569Z,29.47
2022-12-23T09:47:35.239Z,28.52
2022-12-23T09:50:41.801Z,29.38
2022-12-23T09:53:25.196Z,28.30
2022-12-23T09:56:18.654Z,28.98
2022-12-23T09:59:26.949Z,29.47
2022-12-23T10:02:07.131Z,28.17
2022-12-23T10:04:41.869Z,28.30
2022-12-23T10:07:24.251Z,28.52
2022-12-23T10:09:57.311Z,27.58
2022-12-23T10:12:39.423Z,27.77
2022-12-23T10:24:33.491Z,25.90
2022-12-23T10:27:12.579Z,28.02
2022-12-23T10:29:47.306Z,28.27
2022-12-23T10:32:49.563Z,27.92
2022-12-23T10:35:41.428Z,27.25
2022-12-23T10:39:03.421Z,28.48
2022-12-23T10:41:43.812Z,26.85
2022-12-23T10:44:18.983Z,28.50
2022-12-23T10:47:40.087Z,26.60
2022-12-23T10:50:30.903Z,27.05
2022-12-23T10:53:08.245Z,25.15
2022-12-23T10:55:45.159Z,26.27
2022-12-23T10:58:23.732Z,25.87
2022-12-23T11:01:09.779Z,25.65
2022-12-23T11:03:51.702Z,24.13
2022-12-23T11:06:35.016Z,24.50
2022-12-23T11:09:25.387Z,25.15
2022-12-23T11:12:07.083Z,22.63
2022-12-23T11:14:53.619Z,22.90
2022-12-23T11:17:41.022Z,22.95
2022-12-23T11:20:17.425Z,22.25
2022-12-23T11:22:56.138Z,22.13
2022-12-23T11:25:41.468Z,21.57
2022-12-23T11:28:18.315Z,22.70
2022-12-23T11:30:56.586Z,23.63
2022-12-23T11:33:31.538Z,25.67
2022-12-23T11:36:14.956Z,26.38
2022-12-23T11:39:15.006Z,26.07
2022-12-23T11:41:53.470Z,27.50
2022-12-23T11:44:52.041Z,28.35
2022-12-23T11:47:31.175Z,27.58
2022-12-23T11:50:05.290Z,26.77
2022-12-23T11:52:39.034Z,27.83
2022-12-23T11:55:29.152Z,26.48
2022-12-23T11:58:04.627Z,24.13
2022-12-23T12:01:00.008Z,24.40
2022-12-23T12:03:36.032Z,22.35
2022-12-23T12:06:15.785Z,21.37
2022-12-23T12:08:43.424Z,22.33
2022-12-23T12:11:20.478Z,23.33
2022-12-23T12:14:17.131Z,22.67
2022-12-23T12:16:54.202Z,22.65
2022-12-23T12:20:04.816Z,22.17
2022-12-23T12:23:21.109Z,20.50
2022-12-23T12:26:17.242Z,19.33
2022-12-23T12:28:54.116Z,20.50
2022-12-23T12:31:38.489Z,19.95
2022-12-23T12:34:27.811Z,20.30
2022-12-23T12:37:35.949Z,20.98
2022-12-23T12:40:11.983Z,23.98
2022-12-23T12:42:51.109Z,22.90
2022-12-23T12:45:59.859Z,23.65
2022-12-23T12:49:41.649Z,24.10
2022-12-23T12:52:17.112Z,25.33
2022-12-23T12:55:05.261Z,22.92
2022-12-23T12:57:39.000Z,24.02
2022-12-23T13:00:23.352Z,22.45
2022-12-23T13:03:27.943Z,21.87
2022-12-23T13:06:31.971Z,20.52
2022-12-23T13:22:14.889Z,22.90
2022-12-23T13:25:19.414Z,22.13
2022-12-23T13:28:02.446Z,23.13
2022-12-23T13:30:42.601Z,22.35
2022-12-23T13:33:31.083Z,22.35
2022-12-23T13:36:53.689Z,23.00
2022-12-23T13:39:36.961Z,23.60
2022-12-23T13:42:19.426Z,23.60
2022-12-23T13:44:49.746Z,23.83
2022-12-23T13:47:40.038Z,24.02
2022-12-23T13:50:39.630Z,24.17
2022-12-23T13:53:30.086Z,22.38
2022-12-23T13:56:11.934Z,25.00
2022-12-23T13:58:50.429Z,24.90
2022-12-23T14:01:24.222Z,23.15
2022-12-23T14:04:00.343Z,22.93
2022-12-23T14:06:45.443Z,22.27
2022-12-23T14:09:16.787Z,21.52
2022-12-23T14:11:47.062Z,20.00
2022-12-23T14:14:35.204Z,20.67
2022-12-23T14:17:42.599Z,20.10
2022-12-23T14:20:41.322Z,19.67
2022-12-23T14:23:31.392Z,19.25
2022-12-23T14:26:16.940Z,20.67
2022-12-23T14:29:20.186Z,20.40
2022-12-23T14:32:11.511Z,19.33
2022-12-23T14:35:10.207Z,20.52
2022-12-23T14:37:40.500Z,21.45
2022-12-23T14:40:41.489Z,20.77
2022-12-23T14:43:42.606Z,20.70
2022-12-23T14:46:32.069Z,20.80
2022-12-23T14:49:16.216Z,20.58
2022-12-23T14:51:53.031Z,21.92
2022-12-23T14:55:06.426Z,20.92
2022-12-23T14:58:00.663Z,21.13
2022-12-23T15:01:20.603Z,19.47
2022-12-23T15:04:01.638Z,20.23
2022-12-23T15:06:45.234Z,20.02
2022-12-23T15:09:28.953Z,19.10
2022-12-23T15:12:01.182Z,19.30
2022-12-23T15:14:47.436Z,20.33
2022-12-23T15:17:31.652Z,21.67
2022-12-23T15:20:22.781Z,19.75
2022-12-23T15:22:50.870Z,21.17
2022-12-23T15:25:43.096Z,19.75
2022-12-23T15:28:39.433Z,19.43
2022-12-23T15:31:33.267Z,29.52
2022-12-23T15:34:16.517Z,23.50
2022-12-23T15:36:54.558Z,19.27
2022-12-23T15:39:42.053Z,21.77
2022-12-23T15:42:35.470Z,23.53
2022-12-23T15:45:23.398Z,24.05
2022-12-23T15:48:01.567Z,26.13
2022-12-23T15:50:43.890Z,25.15
2022-12-23T15:53:18.796Z,22.63
2022-12-23T15:55:52.938Z,23.67
2022-12-23T15:58:35.567Z,22.30
2022-12-23T16:01:42.110Z,21.38
2022-12-23T16:04:27.235Z,22.25
2022-12-23T16:07:09.471Z,21.45
2022-12-23T16:09:49.528Z,18.87
2022-12-23T16:12:30.238Z,20.67
2022-12-23T16:15:26.782Z,19.10
2022-12-23T16:18:27.601Z,18.42
2022-12-23T16:21:13.934Z,19.50
2022-12-23T16:23:53.813Z,17.90
2022-12-23T16:26:26.183Z,17.23
2022-12-23T16:37:51.114Z,21.88
2022-12-23T16:40:24.510Z,23.10
2022-12-23T16:42:51.687Z,21.63
2022-12-23T16:58:48.565Z,19.97
2022-12-23T17:01:29.876Z,21.23
2022-12-23T17:04:05.847Z,20.00
2022-12-23T17:07:48.582Z,19.63
2022-12-23T17:10:47.028Z,18.33
2022-12-23T17:13:21.812Z,19.70
2022-12-23T17:15:59.199Z,19.25
2022-12-23T17:18:41.332Z,19.02
2022-12-23T17:21:22.989Z,28.35
2022-12-23T17:24:09.403Z,32.33
2022-12-23T17:26:42.465Z,35.90
2022-12-23T17:29:25.966Z,32.03
2022-12-23T17:31:56.451Z,32.65
2022-12-23T17:34:42.450Z,34.50
2022-12-23T17:37:24.586Z,28.60
2022-12-23T17:39:58.069Z,35.67
2022-12-23T17:42:28.082Z,40.25
2022-12-23T17:45:00.415Z,39.13
2022-12-23T17:47:31.317Z,38.10
2022-12-23T17:50:06.734Z,40.30
2022-12-23T17:52:47.217Z,41.13
2022-12-23T17:55:24.250Z,37.85
2022-12-23T17:57:55.433Z,40.30
2022-12-23T18:00:46.018Z,39.70
2022-12-23T18:03:37.735Z,40.47
2022-12-23T18:06:17.724Z,41.87
2022-12-23T18:08:45.308Z,42.17
2022-12-23T18:11:38.105Z,46.83
2022-12-23T18:14:34.003Z,48.13
2022-12-23T18:17:18.344Z,53.70
2022-12-23T18:19:53.951Z,58.83
2022-12-23T18:22:27.579Z,63.70
2022-12-23T18:25:06.775Z,62.95
2022-12-23T18:27:34.937Z,64.78
2022-12-23T18:30:10.670Z,64.00
2022-12-23T18:32:51.866Z,67.67
2022-12-23T18:35:43.100Z,72.50
2022-12-23T18:38:13.947Z,73.60
2022-12-23T18:40:50.099Z,73.72
2022-12-23T18:43:22.712Z,74.03
2022-12-23T18:45:54.107Z,70.20
2022-12-23T18:48:37.265Z,67.50
2022-12-23T18:51:14.828Z,68.85
2022-12-23T18:53:47.968Z,68.80
2022-12-23T18:56:27.613Z,68.93
2022-12-23T18:59:00.234Z,66.27
2022-12-23T19:01:36.028Z,65.03
2022-12-23T19:04:15.009Z,63.75
2022-12-23T19:11:20.586Z,55.88
2022-12-23T19:13:53.871Z,55.10
2022-12-23T19:16:33.755Z,51.28
2022-12-23T19:19:03.705Z,50.95
2022-12-23T19:21:36.913Z,49.78
2022-12-23T19:24:15.070Z,50.17
2022-12-23T19:26:42.234Z,50.67
2022-12-23T19:30:12.041Z,51.08
2022-12-23T19:33:10.361Z,49.88
2022-12-23T19:35:38.661Z,51.05
2022-12-23T19:38:24.278Z,50.63
2022-12-23T19:41:08.299Z,53.93
2022-12-23T19:43:45.003Z,56.60
2022-12-23T19:46:18.884Z,55.58
2022-12-23T19:49:03.117Z,53.55
2022-12-23T19:51:34.338Z,55.42
2022-12-23T19:54:13.933Z,53.60
2022-12-23T19:56:42.533Z,52.65
2022-12-23T19:59:20.536Z,51.65
2022-12-23T20:01:54.849Z,55.05
2022-12-23T20:04:24.894Z,55.38
2022-12-23T20:06:58.743Z,58.97
2022-12-23T20:09:29.355Z,62.28
2022-12-23T20:12:01.508Z,65.53
2022-12-23T20:14:37.811Z,68.65
2022-12-23T20:17:16.081Z,69.25
2022-12-23T20:19:49.145Z,66.10
2022-12-23T20:22:23.916Z,64.57
2022-12-23T20:24:51.129Z,62.58
2022-12-23T20:27:30.625Z,59.75
2022-12-23T20:30:07.767Z,55.75
2022-12-23T20:32:39.938Z,54.40
2022-12-23T20:35:15.233Z,53.70
2022-12-23T20:37:55.383Z,53.47
2022-12-23T20:40:27.232Z,53.70
2022-12-23T20:43:06.481Z,52.55
2022-12-23T20:45:42.070Z,53.67
2022-12-23T20:48:11.479Z,51.72
2022-12-23T20:50:51.318Z,52.28
2022-12-23T20:53:28.837Z,53.78
2022-12-23T20:56:02.603Z,49.58
2022-12-23T20:58:50.809Z,50.73
2022-12-23T21:01:32.972Z,53.13
2022-12-23T21:04:32.548Z,48.92
2022-12-23T21:07:05.981Z,45.70
2022-12-23T21:09:39.946Z,48.20
2022-12-23T21:12:19.366Z,45.73
2022-12-23T21:14:47.685Z,44.40
2022-12-23T21:17:17.757Z,44.25
2022-12-23T21:19:58.322Z,40.25
2022-12-23T21:22:31.580Z,39.13
2022-12-23T21:25:23.329Z,38.97
2022-12-23T21:27:56.536Z,38.58
2022-12-23T21:34:57.526Z,33.47
2022-12-23T21:37:33.957Z,34.40
2022-12-23T21:40:03.867Z,35.37
2022-12-23T21:42:34.816Z,35.40
2022-12-23T21:45:11.019Z,30.75
2022-12-23T21:47:48.525Z,28.02
2022-12-23T21:50:20.227Z,30.23
2022-12-23T21:52:53.499Z,27.38
2022-12-23T21:55:34.137Z,29.00
2022-12-23T21:58:04.149Z,29.50
2022-12-23T22:00:32.477Z,29.90
2022-12-23T22:03:08.109Z,28.65
2022-12-23T22:05:49.580Z,30.53
2022-12-23T22:08:25.508Z,33.92
2022-12-23T22:11:02.214Z,30.85
2022-12-23T22:13:44.165Z,30.23
2022-12-23T22:16:16.795Z,30.60
2022-12-23T22:19:05.922Z,29.73
2022-12-23T22:21:34.771Z,29.63
2022-12-23T22:24:19.764Z,29.58
2022-12-23T22:27:52.778Z,28.17
2022-12-23T22:30:50.024Z,27.92
2022-12-23T22:33:17.267Z,26.83
2022-12-23T22:36:18.468Z,26.95
2022-12-23T22:39:14.270Z,24.67
2022-12-23T22:41:47.560Z,25.20
2022-12-23T22:44:22.823Z,24.27
2022-12-23T22:47:03.005Z,24.10
2022-12-23T22:49:43.739Z,22.98
2022-12-23T22:52:13.973Z,23.20
2022-12-23T22:54:48.434Z,24.58
2022-12-23T22:57:24.087Z,23.27
2022-12-23T22:59:54.804Z,23.53
2022-12-23T23:02:38.311Z,24.08
2022-12-23T23:05:25.118Z,23.65
2022-12-23T23:07:55.054Z,23.85
2022-12-23T23:10:29.765Z,23.27
2022-12-23T23:13:01.545Z,22.80
2022-12-23T23:15:33.835Z,23.13
2022-12-23T23:18:06.326Z,23.67
2022-12-23T23:20:38.401Z,24.38
2022-12-23T23:23:05.672Z,22.95
2022-12-23T23:25:34.021Z,23.07
2022-12-23T23:28:12.194Z,23.45
2022-12-23T23:31:03.824Z,23.48
2022-12-23T23:33:37.722Z,22.75
2022-12-23T23:36:11.513Z,22.67
2022-12-23T23:38:45.101Z,22.57
2022-12-23T23:41:23.565Z,21.52
2022-12-23T23:43:58.879Z,22.02
2022-12-23T23:46:27.174Z,20.92
2022-12-23T23:49:02.937Z,20.90
2022-12-23T23:51:33.971Z,20.97
2022-12-23T23:54:11.164Z,22.33
2022-12-23T23:57:01.349Z,21.67
2022-12-23T23:59:39.810Z,22.10
